createdAt,value
2018-03-16T00:00:49.438Z,7.08
2018-03-16T00:01:49.421Z,7.08
2018-03-16T00:02:49.397Z,7.03
2018-03-16T00:03:49.380Z,7.06
2018-03-16T00:04:49.361Z,7.11
2018-03-16T00:05:49.334Z,7.24
2018-03-16T00:06:49.334Z,7.28
2018-03-16T00:07:49.300Z,7.31
2018-03-16T00:08:49.281Z,7.08
2018-03-16T00:09:49.256Z,7.06
2018-03-16T00:10:49.241Z,7.03
2018-03-16T00:11:49.217Z,6.97
2018-03-16T00:12:49.198Z,6.93
2018-03-16T00:13:49.174Z,6.79
2018-03-16T00:14:49.162Z,6.91
2018-03-16T00:15:49.138Z,6.79
2018-03-16T00:16:49.113Z,6.78
2018-03-16T00:17:49.095Z,6.79
2018-03-16T00:18:49.081Z,6.75
2018-03-16T00:19:49.056Z,6.74
2018-03-16T00:20:49.039Z,6.74
2018-03-16T00:21:49.028Z,6.78
2018-03-16T00:22:49.000Z,6.71
2018-03-16T00:23:48.983Z,6.70
2018-03-16T00:24:48.956Z,6.70
2018-03-16T00:25:48.940Z,6.79
2018-03-16T00:26:48.921Z,6.79
2018-03-16T00:27:48.896Z,6.85
2018-03-16T00:28:48.879Z,6.60
2018-03-16T00:29:48.860Z,6.64
2018-03-16T00:30:48.840Z,6.63
2018-03-16T00:31:48.819Z,6.56
2018-03-16T00:32:48.793Z,6.55
2018-03-16T00:33:48.774Z,6.56
2018-03-16T00:34:48.759Z,6.53
2018-03-16T00:35:48.740Z,6.45
2018-03-16T00:36:48.719Z,6.56
2018-03-16T00:37:48.758Z,6.52
2018-03-16T00:38:48.672Z,6.42
2018-03-16T00:39:48.660Z,6.56
2018-03-16T00:40:48.633Z,6.52
2018-03-16T00:41:48.627Z,6.61
2018-03-16T00:42:48.600Z,6.57
2018-03-16T00:43:48.569Z,6.65
2018-03-16T00:44:48.549Z,6.75
2018-03-16T00:45:48.530Z,6.71
2018-03-16T00:46:48.509Z,6.63
2018-03-16T00:47:48.489Z,6.64
2018-03-16T00:48:48.469Z,6.73
2018-03-16T00:49:48.450Z,6.68
2018-03-16T00:50:48.430Z,6.82
2018-03-16T00:51:48.410Z,6.81
2018-03-16T00:52:48.389Z,6.75
2018-03-16T00:53:48.370Z,6.81
2018-03-16T00:54:48.350Z,6.67
2018-03-16T00:55:48.331Z,6.71
2018-03-16T00:56:48.311Z,6.70
2018-03-16T00:57:48.291Z,6.74
2018-03-16T00:58:48.270Z,6.57
2018-03-16T00:59:48.249Z,6.57
2018-03-16T01:00:48.230Z,6.61
2018-03-16T01:01:48.211Z,6.57
2018-03-16T01:02:48.192Z,6.57
2018-03-16T01:03:48.170Z,6.55
2018-03-16T01:04:48.150Z,6.52
2018-03-16T01:05:48.131Z,6.47
2018-03-16T01:06:48.110Z,6.52
2018-03-16T01:07:48.092Z,6.55
2018-03-16T01:08:48.070Z,6.61
2018-03-16T01:09:48.063Z,6.68
2018-03-16T01:10:48.033Z,6.75
2018-03-16T01:11:48.012Z,6.71
2018-03-16T01:12:47.987Z,6.60
2018-03-16T01:13:47.973Z,6.57
2018-03-16T01:14:47.948Z,6.61
2018-03-16T01:15:47.929Z,6.55
2018-03-16T01:16:47.910Z,6.55
2018-03-16T01:17:47.892Z,6.57
2018-03-16T01:18:47.878Z,6.65
2018-03-16T01:19:47.851Z,6.53
2018-03-16T01:20:47.842Z,6.56
2018-03-16T01:21:47.808Z,6.55
2018-03-16T01:22:47.791Z,6.57
2018-03-16T01:23:47.770Z,6.60
2018-03-16T01:24:47.752Z,6.74
2018-03-16T01:25:47.734Z,6.75
2018-03-16T01:26:47.705Z,6.74
2018-03-16T01:27:47.689Z,6.74
2018-03-16T01:28:47.659Z,6.70
2018-03-16T01:29:47.653Z,6.68
2018-03-16T01:30:47.622Z,6.57
2018-03-16T01:31:47.613Z,6.55
2018-03-16T01:32:47.642Z,6.57
2018-03-16T01:33:47.566Z,6.63
2018-03-16T01:34:47.551Z,6.60
2018-03-16T01:35:47.522Z,6.64
2018-03-16T01:36:47.503Z,6.64
2018-03-16T01:37:47.491Z,6.60
2018-03-16T01:38:47.465Z,6.68
2018-03-16T01:39:47.445Z,6.61
2018-03-16T01:40:47.421Z,6.46
2018-03-16T01:41:47.404Z,6.43
2018-03-16T01:42:47.380Z,6.57
2018-03-16T01:43:47.362Z,6.53
2018-03-16T01:44:47.339Z,6.43
2018-03-16T01:45:47.317Z,6.46
2018-03-16T01:46:47.303Z,6.53
2018-03-16T01:47:47.278Z,6.43
2018-03-16T01:48:47.256Z,6.37
2018-03-16T01:49:47.238Z,6.28
2018-03-16T01:50:47.222Z,6.25
2018-03-16T01:51:47.199Z,6.30
2018-03-16T01:52:47.181Z,6.38
2018-03-16T01:53:47.160Z,6.34
2018-03-16T01:54:47.140Z,6.35
2018-03-16T01:55:47.115Z,6.31
2018-03-16T01:56:47.097Z,6.45
2018-03-16T01:57:47.076Z,6.34
2018-03-16T01:58:47.069Z,6.31
2018-03-16T01:59:47.037Z,6.34
2018-03-16T02:00:47.013Z,6.37
2018-03-16T02:01:46.996Z,6.43
2018-03-16T02:02:46.974Z,6.46
2018-03-16T02:03:46.960Z,6.53
2018-03-16T02:04:46.935Z,6.42
2018-03-16T02:05:46.914Z,6.52
2018-03-16T02:06:46.896Z,6.57
2018-03-16T02:07:46.878Z,6.56
2018-03-16T02:08:46.861Z,6.49
2018-03-16T02:09:46.835Z,6.60
2018-03-16T02:10:46.816Z,6.57
2018-03-16T02:11:46.791Z,6.53
2018-03-16T02:12:46.771Z,6.49
2018-03-16T02:13:46.751Z,6.40
2018-03-16T02:14:46.735Z,6.45
2018-03-16T02:15:46.711Z,6.42
2018-03-16T02:16:46.687Z,6.46
2018-03-16T02:17:46.670Z,6.37
2018-03-16T02:18:46.648Z,6.37
2018-03-16T02:19:46.630Z,6.34
2018-03-16T02:20:46.609Z,6.32
2018-03-16T02:21:46.593Z,6.25
2018-03-16T02:22:46.569Z,6.21
2018-03-16T02:23:46.545Z,6.12
2018-03-16T02:24:46.526Z,6.12
2018-03-16T02:25:46.509Z,6.28
2018-03-16T02:26:46.491Z,6.32
2018-03-16T02:27:46.467Z,6.37
2018-03-16T02:28:46.450Z,6.37
2018-03-16T02:29:46.428Z,6.46
2018-03-16T02:30:46.419Z,6.43
2018-03-16T02:31:46.389Z,6.37
2018-03-16T02:32:46.365Z,6.28
2018-03-16T02:33:46.348Z,6.30
2018-03-16T02:34:46.327Z,6.09
2018-03-16T02:35:46.304Z,5.98
2018-03-16T02:36:46.283Z,6.08
2018-03-16T02:37:46.262Z,6.15
2018-03-16T02:38:46.248Z,6.15
2018-03-16T02:39:46.223Z,6.08
2018-03-16T02:40:46.202Z,6.05
2018-03-16T02:41:46.180Z,6.05
2018-03-16T02:42:46.160Z,6.00
2018-03-16T02:43:46.139Z,6.00
2018-03-16T02:44:46.120Z,6.09
2018-03-16T02:45:46.105Z,6.02
2018-03-16T02:46:46.080Z,6.11
2018-03-16T02:47:46.056Z,6.03
2018-03-16T02:48:46.040Z,6.16
2018-03-16T02:49:46.020Z,6.16
2018-03-16T02:50:45.999Z,6.08
2018-03-16T02:51:45.979Z,6.15
2018-03-16T02:52:45.955Z,6.15
2018-03-16T02:53:45.936Z,6.24
2018-03-16T02:54:45.918Z,6.18
2018-03-16T02:55:45.901Z,6.30
2018-03-16T02:56:45.878Z,6.27
2018-03-16T02:57:45.859Z,6.19
2018-03-16T02:58:45.840Z,6.24
2018-03-16T02:59:45.817Z,6.28
2018-03-16T03:00:45.795Z,6.19
2018-03-16T03:01:45.773Z,6.30
2018-03-16T03:02:45.766Z,6.34
2018-03-16T03:03:45.732Z,6.32
2018-03-16T03:04:45.712Z,6.18
2018-03-16T03:05:45.690Z,5.98
2018-03-16T03:06:45.685Z,6.03
2018-03-16T03:07:45.652Z,6.16
2018-03-16T03:08:45.640Z,6.15
2018-03-16T03:09:45.612Z,6.25
2018-03-16T03:10:45.591Z,6.25
2018-03-16T03:11:45.579Z,6.35
2018-03-16T03:12:45.552Z,6.46
2018-03-16T03:13:45.531Z,6.37
2018-03-16T03:14:45.517Z,6.49
2018-03-16T03:15:45.490Z,6.37
2018-03-16T03:16:45.471Z,6.40
2018-03-16T03:17:45.449Z,6.30
2018-03-16T03:18:45.434Z,6.37
2018-03-16T03:19:45.409Z,6.40
2018-03-16T03:20:45.388Z,6.35
2018-03-16T03:21:45.364Z,6.25
2018-03-16T03:22:45.349Z,6.25
2018-03-16T03:23:45.322Z,6.19
2018-03-16T03:24:45.309Z,6.28
2018-03-16T03:25:45.290Z,6.30
2018-03-16T03:26:45.262Z,6.27
2018-03-16T03:27:45.298Z,6.21
2018-03-16T03:28:45.220Z,6.19
2018-03-16T03:29:45.206Z,6.24
2018-03-16T03:30:45.196Z,6.16
2018-03-16T03:31:45.166Z,6.19
2018-03-16T03:32:45.143Z,6.15
2018-03-16T03:33:45.121Z,6.21
2018-03-16T03:34:45.100Z,6.15
2018-03-16T03:35:45.096Z,6.19
2018-03-16T03:36:45.060Z,6.11
2018-03-16T03:37:45.038Z,6.06
2018-03-16T03:38:45.023Z,6.09
2018-03-16T03:39:44.999Z,6.13
2018-03-16T03:40:44.978Z,6.11
2018-03-16T03:41:45.010Z,6.24
2018-03-16T03:42:44.937Z,6.27
2018-03-16T03:43:45.017Z,6.11
2018-03-16T03:44:44.911Z,6.00
2018-03-16T03:45:44.877Z,6.03
2018-03-16T03:46:44.853Z,5.93
2018-03-16T03:47:44.887Z,6.03
2018-03-16T03:48:44.820Z,6.02
2018-03-16T03:49:44.842Z,5.84
2018-03-16T03:50:44.772Z,5.84
2018-03-16T03:51:44.750Z,5.82
2018-03-16T03:52:44.730Z,5.87
2018-03-16T03:53:44.712Z,5.97
2018-03-16T03:54:44.688Z,5.93
2018-03-16T03:55:44.669Z,5.93
2018-03-16T03:56:44.654Z,5.98
2018-03-16T03:57:44.630Z,5.95
2018-03-16T03:58:44.608Z,6.00
2018-03-16T03:59:44.585Z,5.91
2018-03-16T04:00:44.568Z,5.93
2018-03-16T04:01:44.550Z,5.93
2018-03-16T04:02:44.522Z,5.97
2018-03-16T04:03:44.507Z,5.85
2018-03-16T04:04:44.484Z,5.82
2018-03-16T04:05:44.461Z,5.84
2018-03-16T04:06:44.444Z,5.85
2018-03-16T04:07:44.421Z,5.85
2018-03-16T04:08:44.401Z,5.84
2018-03-16T04:09:44.628Z,5.80
2018-03-16T04:10:44.361Z,5.87
2018-03-16T04:11:44.346Z,5.90
2018-03-16T04:12:44.318Z,5.97
2018-03-16T04:13:44.302Z,5.91
2018-03-16T04:14:44.280Z,5.87
2018-03-16T04:15:44.255Z,5.75
2018-03-16T04:16:44.241Z,5.76
2018-03-16T04:17:44.219Z,5.76
2018-03-16T04:18:44.200Z,5.76
2018-03-16T04:19:44.176Z,5.73
2018-03-16T04:20:44.148Z,5.75
2018-03-16T04:21:44.137Z,5.72
2018-03-16T04:22:44.109Z,5.76
2018-03-16T04:23:44.089Z,5.76
2018-03-16T04:24:44.068Z,5.72
2018-03-16T04:25:44.047Z,5.66
2018-03-16T04:26:44.029Z,5.67
2018-03-16T04:27:44.009Z,5.70
2018-03-16T04:28:43.985Z,5.75
2018-03-16T04:29:43.968Z,5.80
2018-03-16T04:30:43.947Z,5.75
2018-03-16T04:31:43.922Z,5.88
2018-03-16T04:32:43.907Z,5.79
2018-03-16T04:33:43.891Z,6.00
2018-03-16T04:34:43.859Z,5.90
2018-03-16T04:35:43.838Z,5.82
2018-03-16T04:36:43.824Z,5.82
2018-03-16T04:37:43.799Z,5.82
2018-03-16T04:38:43.778Z,5.79
2018-03-16T04:39:43.759Z,5.69
2018-03-16T04:40:43.742Z,5.73
2018-03-16T04:41:43.819Z,5.69
2018-03-16T04:42:43.699Z,5.82
2018-03-16T04:43:43.750Z,5.84
2018-03-16T04:44:43.655Z,5.75
2018-03-16T04:45:43.739Z,5.69
2018-03-16T04:46:43.619Z,5.72
2018-03-16T04:47:43.594Z,5.76
2018-03-16T04:48:43.568Z,5.76
2018-03-16T04:49:43.554Z,5.75
2018-03-16T04:50:43.535Z,5.70
2018-03-16T04:51:43.509Z,5.67
2018-03-16T04:52:43.487Z,5.72
2018-03-16T04:53:43.469Z,5.73
2018-03-16T04:54:43.449Z,5.61
2018-03-16T04:55:43.429Z,5.62
2018-03-16T04:56:43.403Z,5.62
2018-03-16T04:57:43.390Z,5.79
2018-03-16T04:58:43.370Z,5.82
2018-03-16T04:59:43.346Z,5.70
2018-03-16T05:00:43.333Z,5.69
2018-03-16T05:01:43.307Z,5.67
2018-03-16T05:02:43.280Z,5.70
2018-03-16T05:03:43.365Z,5.59
2018-03-16T05:04:43.240Z,5.61
2018-03-16T05:05:43.225Z,5.61
2018-03-16T05:06:43.201Z,5.67
2018-03-16T05:07:43.185Z,5.73
2018-03-16T05:08:43.162Z,5.67
2018-03-16T05:09:43.146Z,5.62
2018-03-16T05:10:43.121Z,5.61
2018-03-16T05:11:43.100Z,5.66
2018-03-16T05:12:43.082Z,5.66
2018-03-16T05:13:43.057Z,5.70
2018-03-16T05:14:43.048Z,5.75
2018-03-16T05:15:43.052Z,5.77
2018-03-16T05:16:42.989Z,5.79
2018-03-16T05:17:42.969Z,5.66
2018-03-16T05:18:42.948Z,5.66
2018-03-16T05:19:42.929Z,5.65
2018-03-16T05:20:42.917Z,5.61
2018-03-16T05:21:42.892Z,5.61
2018-03-16T05:22:42.868Z,5.59
2018-03-16T05:23:42.840Z,5.51
2018-03-16T05:24:42.818Z,5.55
2018-03-16T05:25:42.800Z,5.61
2018-03-16T05:26:42.800Z,5.73
2018-03-16T05:27:42.759Z,5.72
2018-03-16T05:28:42.744Z,5.85
2018-03-16T05:29:42.719Z,5.80
2018-03-16T05:30:42.701Z,5.80
2018-03-16T05:31:42.682Z,5.93
2018-03-16T05:32:42.661Z,5.82
2018-03-16T05:33:42.639Z,5.80
2018-03-16T05:34:42.625Z,5.80
2018-03-16T05:35:42.599Z,5.72
2018-03-16T05:36:42.568Z,5.61
2018-03-16T05:37:42.549Z,5.61
2018-03-16T05:38:42.533Z,5.66
2018-03-16T05:39:42.511Z,5.59
2018-03-16T05:40:42.530Z,5.57
2018-03-16T05:41:42.473Z,5.59
2018-03-16T05:42:42.452Z,5.59
2018-03-16T05:43:42.426Z,5.65
2018-03-16T05:44:42.409Z,5.69
2018-03-16T05:45:42.391Z,5.65
2018-03-16T05:46:42.362Z,5.65
2018-03-16T05:47:42.347Z,5.58
2018-03-16T05:48:42.330Z,5.57
2018-03-16T05:49:42.304Z,5.61
2018-03-16T05:50:42.281Z,5.58
2018-03-16T05:51:42.266Z,5.62
2018-03-16T05:52:42.237Z,5.66
2018-03-16T05:53:42.219Z,5.62
2018-03-16T05:54:42.196Z,5.65
2018-03-16T05:55:42.191Z,5.59
2018-03-16T05:56:42.155Z,5.59
2018-03-16T05:57:42.139Z,5.44
2018-03-16T05:58:42.111Z,5.51
2018-03-16T05:59:42.091Z,5.44
2018-03-16T06:00:42.113Z,5.59
2018-03-16T06:01:42.046Z,5.58
2018-03-16T06:02:42.029Z,5.66
2018-03-16T06:03:42.009Z,5.65
2018-03-16T06:04:41.984Z,5.65
2018-03-16T06:05:41.969Z,5.65
2018-03-16T06:06:41.944Z,5.66
2018-03-16T06:07:41.920Z,5.75
2018-03-16T06:08:41.900Z,5.61
2018-03-16T06:09:41.881Z,5.67
2018-03-16T06:10:41.857Z,5.67
2018-03-16T06:11:41.844Z,5.61
2018-03-16T06:12:41.824Z,5.62
2018-03-16T06:13:41.795Z,5.72
2018-03-16T06:14:41.779Z,5.65
2018-03-16T06:15:41.756Z,5.72
2018-03-16T06:16:41.731Z,5.61
2018-03-16T06:17:41.719Z,5.62
2018-03-16T06:18:41.696Z,5.58
2018-03-16T06:19:41.677Z,5.62
2018-03-16T06:20:41.651Z,5.66
2018-03-16T06:21:41.630Z,5.72
2018-03-16T06:22:41.609Z,5.73
2018-03-16T06:23:41.587Z,5.61
2018-03-16T06:24:41.611Z,5.72
2018-03-16T06:25:41.548Z,5.62
2018-03-16T06:26:41.528Z,5.72
2018-03-16T06:27:41.505Z,5.70
2018-03-16T06:28:41.489Z,5.57
2018-03-16T06:29:41.464Z,5.57
2018-03-16T06:30:41.446Z,5.59
2018-03-16T06:31:41.425Z,5.39
2018-03-16T06:32:41.400Z,5.57
2018-03-16T06:33:41.380Z,5.65
2018-03-16T06:34:41.359Z,5.55
2018-03-16T06:35:41.337Z,5.57
2018-03-16T06:36:41.313Z,5.59
2018-03-16T06:37:41.295Z,5.66
2018-03-16T06:38:41.277Z,5.61
2018-03-16T06:39:41.256Z,5.61
2018-03-16T06:40:41.234Z,5.58
2018-03-16T06:41:41.209Z,5.59
2018-03-16T06:42:41.192Z,5.61
2018-03-16T06:43:41.171Z,5.51
2018-03-16T06:44:41.310Z,5.62
2018-03-16T06:45:41.126Z,5.48
2018-03-16T06:46:41.110Z,5.55
2018-03-16T06:47:41.089Z,5.47
2018-03-16T06:48:41.069Z,5.48
2018-03-16T06:49:41.047Z,5.52
2018-03-16T06:50:41.026Z,5.61
2018-03-16T06:51:41.044Z,5.65
2018-03-16T06:52:40.978Z,5.51
2018-03-16T06:53:40.972Z,5.51
2018-03-16T06:54:40.943Z,5.58
2018-03-16T06:55:40.919Z,5.57
2018-03-16T06:56:40.902Z,5.59
2018-03-16T06:57:40.900Z,5.58
2018-03-16T06:58:40.861Z,5.43
2018-03-16T06:59:40.850Z,5.36
2018-03-16T07:00:40.814Z,5.51
2018-03-16T07:01:40.799Z,5.47
2018-03-16T07:02:40.771Z,5.47
2018-03-16T07:03:40.758Z,5.33
2018-03-16T07:04:40.729Z,5.33
2018-03-16T07:05:40.711Z,5.40
2018-03-16T07:06:40.699Z,5.51
2018-03-16T07:07:40.673Z,5.44
2018-03-16T07:08:40.648Z,5.41
2018-03-16T07:09:40.630Z,5.30
2018-03-16T07:10:40.609Z,5.29
2018-03-16T07:11:40.579Z,5.32
2018-03-16T07:12:40.558Z,5.37
2018-03-16T07:13:40.540Z,5.22
2018-03-16T07:14:40.519Z,5.27
2018-03-16T07:15:40.498Z,5.29
2018-03-16T07:16:40.481Z,5.21
2018-03-16T07:17:40.464Z,5.43
2018-03-16T07:18:40.439Z,5.25
2018-03-16T07:19:40.416Z,5.24
2018-03-16T07:20:40.391Z,5.30
2018-03-16T07:21:40.370Z,5.32
2018-03-16T07:22:40.353Z,5.27
2018-03-16T07:23:40.330Z,5.32
2018-03-16T07:24:40.318Z,5.36
2018-03-16T07:25:40.286Z,5.43
2018-03-16T07:26:40.269Z,5.39
2018-03-16T07:27:40.250Z,5.47
2018-03-16T07:28:40.229Z,5.43
2018-03-16T07:29:40.227Z,5.40
2018-03-16T07:30:40.179Z,5.47
2018-03-16T07:31:40.163Z,5.37
2018-03-16T07:32:40.142Z,5.36
2018-03-16T07:33:40.120Z,5.50
2018-03-16T07:34:40.166Z,5.59
2018-03-16T07:35:40.080Z,5.62
2018-03-16T07:36:40.059Z,5.57
2018-03-16T07:37:40.039Z,5.52
2018-03-16T07:38:40.021Z,5.55
2018-03-16T07:39:40.004Z,5.50
2018-03-16T07:40:39.978Z,5.41
2018-03-16T07:41:39.960Z,5.50
2018-03-16T07:42:39.954Z,5.41
2018-03-16T07:43:39.909Z,5.24
2018-03-16T07:44:39.892Z,5.24
2018-03-16T07:45:39.864Z,5.24
2018-03-16T07:46:39.846Z,5.29
2018-03-16T07:47:39.853Z,5.34
2018-03-16T07:48:39.813Z,5.39
2018-03-16T07:49:39.786Z,5.27
2018-03-16T07:50:39.766Z,5.30
2018-03-16T07:51:39.740Z,5.36
2018-03-16T07:52:39.727Z,5.25
2018-03-16T07:53:39.701Z,5.29
2018-03-16T07:54:39.674Z,5.32
2018-03-16T07:55:39.658Z,5.24
2018-03-16T07:56:39.644Z,5.18
2018-03-16T07:57:39.615Z,5.22
2018-03-16T07:58:39.600Z,5.27
2018-03-16T07:59:39.584Z,5.27
2018-03-16T08:00:39.550Z,5.25
2018-03-16T08:01:39.534Z,5.24
2018-03-16T08:02:39.510Z,5.21
2018-03-16T08:03:39.491Z,5.25
2018-03-16T08:04:39.465Z,5.37
2018-03-16T08:05:39.451Z,5.47
2018-03-16T08:06:39.427Z,5.52
2018-03-16T08:07:39.408Z,5.48
2018-03-16T08:08:39.391Z,5.57
2018-03-16T08:09:39.371Z,5.59
2018-03-16T08:10:39.347Z,5.67
2018-03-16T08:11:39.320Z,5.65
2018-03-16T08:12:39.305Z,5.57
2018-03-16T08:13:39.291Z,5.52
2018-03-16T08:14:39.259Z,5.61
2018-03-16T08:15:39.238Z,5.59
2018-03-16T08:16:39.220Z,5.62
2018-03-16T08:17:39.190Z,5.57
2018-03-16T08:18:39.174Z,5.39
2018-03-16T08:19:39.160Z,5.34
2018-03-16T08:20:39.134Z,5.39
2018-03-16T08:21:39.116Z,5.34
2018-03-16T08:22:39.091Z,5.34
2018-03-16T08:23:39.066Z,5.39
2018-03-16T08:24:39.045Z,5.41
2018-03-16T08:25:39.025Z,5.21
2018-03-16T08:26:39.054Z,5.16
2018-03-16T08:27:38.980Z,5.16
2018-03-16T08:28:38.962Z,5.15
2018-03-16T08:29:38.935Z,5.22
2018-03-16T08:30:38.920Z,5.14
2018-03-16T08:31:38.901Z,5.01
2018-03-16T08:32:38.978Z,4.98
2018-03-16T08:33:38.858Z,4.94
2018-03-16T08:34:38.836Z,5.18
2018-03-16T08:35:38.814Z,5.11
2018-03-16T08:36:38.794Z,5.07
2018-03-16T08:37:38.769Z,4.96
2018-03-16T08:38:38.752Z,5.07
2018-03-16T08:39:38.724Z,5.19
2018-03-16T08:40:38.711Z,5.16
2018-03-16T08:41:38.688Z,5.18
2018-03-16T08:42:38.765Z,5.09
2018-03-16T08:43:38.646Z,4.98
2018-03-16T08:44:38.626Z,5.12
2018-03-16T08:45:38.600Z,5.07
2018-03-16T08:46:38.679Z,5.15
2018-03-16T08:47:38.557Z,5.21
2018-03-16T08:48:38.650Z,5.33
2018-03-16T08:49:38.522Z,5.48
2018-03-16T08:50:38.500Z,5.41
2018-03-16T08:51:38.482Z,5.51
2018-03-16T08:52:38.879Z,5.40
2018-03-16T08:53:38.431Z,5.44
2018-03-16T08:54:38.457Z,5.40
2018-03-16T08:55:38.392Z,5.36
2018-03-16T08:56:38.374Z,5.27
2018-03-16T08:57:38.355Z,5.25
2018-03-16T08:58:38.334Z,5.33
2018-03-16T08:59:38.305Z,5.27
2018-03-16T09:00:38.288Z,5.24
2018-03-16T09:01:38.260Z,5.25
2018-03-16T09:02:38.243Z,5.15
2018-03-16T09:03:38.222Z,5.22
2018-03-16T09:04:38.198Z,5.27
2018-03-16T09:05:38.175Z,5.32
2018-03-16T09:06:38.162Z,5.40
2018-03-16T09:07:38.139Z,5.39
2018-03-16T09:08:38.113Z,5.55
2018-03-16T09:09:38.102Z,5.50
2018-03-16T09:10:38.068Z,5.47
2018-03-16T09:11:38.051Z,5.34
2018-03-16T09:12:38.062Z,5.51
2018-03-16T09:13:38.011Z,5.44
2018-03-16T09:14:37.990Z,5.50
2018-03-16T09:15:37.968Z,5.44
2018-03-16T09:16:37.944Z,5.50
2018-03-16T09:17:37.929Z,5.59
2018-03-16T09:18:37.903Z,5.65
2018-03-16T09:19:37.879Z,5.58
2018-03-16T09:20:37.859Z,5.66
2018-03-16T09:21:37.850Z,5.67
2018-03-16T09:22:37.831Z,5.59
2018-03-16T09:23:37.799Z,5.58
2018-03-16T09:24:37.782Z,5.50
2018-03-16T09:25:37.754Z,5.52
2018-03-16T09:26:37.736Z,5.47
2018-03-16T09:27:37.712Z,5.51
2018-03-16T09:28:37.693Z,5.51
2018-03-16T09:29:37.672Z,5.52
2018-03-16T09:30:37.649Z,5.57
2018-03-16T09:31:37.627Z,5.47
2018-03-16T09:32:37.608Z,5.44
2018-03-16T09:33:37.588Z,5.11
2018-03-16T09:34:37.575Z,4.97
2018-03-16T09:35:37.549Z,4.89
2018-03-16T09:36:37.532Z,5.00
2018-03-16T09:37:37.515Z,4.94
2018-03-16T09:38:37.492Z,4.97
2018-03-16T09:39:37.458Z,4.97
2018-03-16T09:40:37.440Z,5.04
2018-03-16T09:41:37.419Z,5.03
2018-03-16T09:42:37.399Z,5.11
2018-03-16T09:43:37.375Z,5.11
2018-03-16T09:44:37.361Z,5.12
2018-03-16T09:45:37.341Z,5.03
2018-03-16T09:46:37.321Z,5.12
2018-03-16T09:47:37.295Z,5.00
2018-03-16T09:48:37.268Z,4.93
2018-03-16T09:49:37.250Z,4.82
2018-03-16T09:50:37.241Z,4.72
2018-03-16T09:51:37.216Z,4.75
2018-03-16T09:52:37.189Z,4.89
2018-03-16T09:53:37.165Z,4.89
2018-03-16T09:54:37.144Z,5.01
2018-03-16T09:55:37.121Z,4.94
2018-03-16T09:56:37.100Z,4.77
2018-03-16T09:57:37.090Z,4.75
2018-03-16T09:58:37.057Z,4.82
2018-03-16T09:59:37.036Z,4.79
2018-03-16T10:00:37.019Z,4.88
2018-03-16T10:01:37.004Z,4.96
2018-03-16T10:02:36.975Z,4.86
2018-03-16T10:03:36.949Z,4.71
2018-03-16T10:04:36.935Z,4.77
2018-03-16T10:05:36.908Z,4.77
2018-03-16T10:06:36.892Z,4.89
2018-03-16T10:07:36.872Z,4.86
2018-03-16T10:08:36.848Z,4.98
2018-03-16T10:09:36.825Z,4.93
2018-03-16T10:10:36.841Z,4.88
2018-03-16T10:11:36.787Z,4.78
2018-03-16T10:12:36.760Z,4.85
2018-03-16T10:13:36.739Z,4.85
2018-03-16T10:14:36.719Z,4.86
2018-03-16T10:15:36.698Z,4.96
2018-03-16T10:16:36.674Z,4.83
2018-03-16T10:17:36.652Z,4.85
2018-03-16T10:18:36.631Z,4.75
2018-03-16T10:19:36.609Z,4.72
2018-03-16T10:20:36.595Z,4.77
2018-03-16T10:21:36.568Z,4.60
2018-03-16T10:22:36.548Z,4.56
2018-03-16T10:23:36.852Z,4.59
2018-03-16T10:24:36.503Z,4.53
2018-03-16T10:25:36.499Z,4.53
2018-03-16T10:26:36.459Z,4.53
2018-03-16T10:27:36.437Z,4.53
2018-03-16T10:28:36.428Z,4.54
2018-03-16T10:29:36.393Z,4.54
2018-03-16T10:30:36.382Z,4.54
2018-03-16T10:31:36.353Z,4.56
2018-03-16T10:32:36.328Z,4.54
2018-03-16T10:33:36.309Z,4.48
2018-03-16T10:34:36.291Z,4.54
2018-03-16T10:35:36.268Z,4.63
2018-03-16T10:36:36.249Z,4.64
2018-03-16T10:37:36.223Z,4.45
2018-03-16T10:38:36.213Z,4.59
2018-03-16T10:39:36.212Z,4.61
2018-03-16T10:40:36.161Z,4.66
2018-03-16T10:41:36.139Z,4.59
2018-03-16T10:42:36.121Z,4.60
2018-03-16T10:43:36.098Z,4.63
2018-03-16T10:44:36.083Z,4.74
2018-03-16T10:45:36.052Z,4.78
2018-03-16T10:46:36.040Z,4.78
2018-03-16T10:47:36.020Z,4.77
2018-03-16T10:48:35.993Z,4.78
2018-03-16T10:49:35.970Z,4.89
2018-03-16T10:50:35.954Z,4.77
2018-03-16T10:51:35.933Z,4.78
2018-03-16T10:52:35.906Z,4.88
2018-03-16T10:53:35.887Z,4.98
2018-03-16T10:54:35.862Z,5.14
2018-03-16T10:55:35.842Z,5.19
2018-03-16T10:56:35.835Z,5.11
2018-03-16T10:57:35.802Z,5.12
2018-03-16T10:58:35.779Z,5.14
2018-03-16T10:59:35.759Z,5.15
2018-03-16T11:00:35.737Z,5.16
2018-03-16T11:01:35.713Z,5.11
2018-03-16T11:02:35.744Z,5.03
2018-03-16T11:03:35.672Z,5.01
2018-03-16T11:04:35.649Z,5.01
2018-03-16T11:05:35.627Z,4.94
2018-03-16T11:06:35.667Z,4.82
2018-03-16T11:07:35.590Z,5.03
2018-03-16T11:08:35.566Z,4.97
2018-03-16T11:09:35.554Z,4.89
2018-03-16T11:10:35.531Z,4.83
2018-03-16T11:11:35.499Z,4.89
2018-03-16T11:12:35.480Z,4.94
2018-03-16T11:13:35.464Z,5.01
2018-03-16T11:14:35.441Z,5.12
2018-03-16T11:15:35.414Z,5.09
2018-03-16T11:16:35.399Z,5.04
2018-03-16T11:17:35.379Z,5.01
2018-03-16T11:18:35.350Z,4.93
2018-03-16T11:19:35.339Z,4.98
2018-03-16T11:20:35.309Z,4.91
2018-03-16T11:21:35.294Z,4.86
2018-03-16T11:22:35.266Z,4.82
2018-03-16T11:23:35.247Z,4.86
2018-03-16T11:24:35.229Z,4.96
2018-03-16T11:25:35.205Z,4.89
2018-03-16T11:26:35.194Z,4.97
2018-03-16T11:27:35.165Z,4.71
2018-03-16T11:28:35.138Z,4.69
2018-03-16T11:29:35.122Z,4.83
2018-03-16T11:30:35.099Z,4.89
2018-03-16T11:31:35.083Z,4.96
2018-03-16T11:32:35.063Z,5.07
2018-03-16T11:33:35.033Z,4.72
2018-03-16T11:34:35.012Z,4.82
2018-03-16T11:35:34.992Z,4.78
2018-03-16T11:36:34.973Z,4.83
2018-03-16T11:37:34.997Z,4.86
2018-03-16T11:38:34.931Z,4.89
2018-03-16T11:39:34.906Z,4.63
2018-03-16T11:40:34.890Z,4.61
2018-03-16T11:41:34.862Z,4.77
2018-03-16T11:42:34.847Z,4.61
2018-03-16T11:43:34.823Z,4.61
2018-03-16T11:44:34.797Z,4.66
2018-03-16T11:45:34.784Z,4.59
2018-03-16T11:46:34.759Z,4.60
2018-03-16T11:47:34.740Z,4.54
2018-03-16T11:48:34.722Z,4.51
2018-03-16T11:49:34.706Z,4.49
2018-03-16T11:50:34.670Z,4.57
2018-03-16T11:51:34.656Z,4.74
2018-03-16T11:52:34.629Z,4.67
2018-03-16T11:53:34.609Z,4.72
2018-03-16T11:54:34.589Z,4.75
2018-03-16T11:55:34.569Z,4.79
2018-03-16T11:56:34.552Z,4.77
2018-03-16T11:57:34.527Z,4.89
2018-03-16T11:58:34.502Z,4.83
2018-03-16T11:59:34.529Z,4.85
2018-03-16T12:00:34.459Z,4.88
2018-03-16T12:01:34.436Z,4.91
2018-03-16T12:02:34.419Z,4.82
2018-03-16T12:03:34.399Z,5.01
2018-03-16T12:04:34.374Z,5.03
2018-03-16T12:05:34.360Z,5.00
2018-03-16T12:06:34.329Z,5.06
2018-03-16T12:07:34.373Z,5.00
2018-03-16T12:08:34.288Z,5.03
2018-03-16T12:09:34.271Z,5.01
2018-03-16T12:10:34.247Z,4.94
2018-03-16T12:11:34.229Z,4.91
2018-03-16T12:12:34.201Z,4.69
2018-03-16T12:13:34.178Z,4.79
2018-03-16T12:14:34.158Z,4.78
2018-03-16T12:15:34.139Z,4.78
2018-03-16T12:16:34.115Z,4.77
2018-03-16T12:17:34.203Z,4.86
2018-03-16T12:18:34.079Z,4.86
2018-03-16T12:19:34.381Z,4.86
2018-03-16T12:20:34.038Z,4.78
2018-03-16T12:21:34.113Z,4.85
2018-03-16T12:22:33.994Z,4.86
2018-03-16T12:23:34.020Z,4.82
2018-03-16T12:24:33.949Z,4.83
2018-03-16T12:25:33.979Z,5.00
2018-03-16T12:26:33.907Z,5.06
2018-03-16T12:27:33.890Z,5.12
2018-03-16T12:28:49.475Z,5.04
2018-03-16T12:29:33.843Z,5.11
2018-03-16T12:30:33.825Z,5.03
2018-03-16T12:31:33.804Z,5.00
2018-03-16T12:32:33.781Z,5.00
2018-03-16T12:33:33.820Z,4.83
2018-03-16T12:34:33.735Z,4.77
2018-03-16T12:35:33.726Z,4.67
2018-03-16T12:36:33.701Z,4.64
2018-03-16T12:37:33.674Z,4.64
2018-03-16T12:38:33.843Z,4.75
2018-03-16T12:39:33.632Z,4.77
2018-03-16T12:40:33.610Z,4.78
2018-03-16T12:41:33.587Z,4.82
2018-03-16T12:42:33.581Z,4.79
2018-03-16T12:43:33.546Z,4.82
2018-03-16T12:44:33.532Z,4.77
2018-03-16T12:45:33.500Z,4.64
2018-03-16T12:46:33.480Z,4.60
2018-03-16T12:47:33.463Z,4.51
2018-03-16T12:48:33.447Z,4.41
2018-03-16T12:49:33.430Z,4.34
2018-03-16T12:50:33.389Z,4.36
2018-03-16T12:51:41.974Z,4.31
2018-03-16T12:52:33.349Z,4.42
2018-03-16T12:53:33.376Z,4.56
2018-03-16T12:54:33.309Z,4.56
2018-03-16T12:55:33.290Z,4.69
2018-03-16T12:56:33.269Z,4.60
2018-03-16T12:57:33.251Z,4.61
2018-03-16T12:58:33.227Z,4.60
2018-03-16T12:59:33.210Z,4.59
2018-03-16T13:00:33.179Z,4.56
2018-03-16T13:01:33.169Z,4.53
2018-03-16T13:02:33.134Z,4.56
2018-03-16T13:03:33.120Z,4.53
2018-03-16T13:04:33.103Z,4.56
2018-03-16T13:05:33.075Z,4.61
2018-03-16T13:06:33.049Z,4.63
2018-03-16T13:07:33.043Z,4.64
2018-03-16T13:08:33.058Z,4.82
2018-03-16T13:09:32.998Z,4.63
2018-03-16T13:10:32.968Z,4.61
2018-03-16T13:11:32.948Z,4.69
2018-03-16T13:12:32.932Z,4.77
2018-03-16T13:13:32.959Z,4.61
2018-03-16T13:14:32.891Z,4.66
2018-03-16T13:15:32.860Z,4.54
2018-03-16T13:16:32.836Z,4.51
2018-03-16T13:17:32.827Z,4.49
2018-03-16T13:18:32.797Z,4.54